createdAt,value
2019-02-12T00:00:03.909Z,1027.7
2019-02-12T00:01:03.395Z,1027.6
2019-02-12T00:02:03.730Z,1027.5
2019-02-12T00:03:03.326Z,1027.7
2019-02-12T00:04:03.581Z,1027.6
2019-02-12T00:05:03.334Z,1027.6
2019-02-12T00:06:03.692Z,1027.6
2019-02-12T00:07:03.150Z,1027.5
2019-02-12T00:08:03.700Z,1027.6
2019-02-12T00:09:03.332Z,1027.6
2019-02-12T00:10:03.592Z,1027.6
2019-02-12T00:11:02.995Z,1027.6
2019-02-12T00:12:02.998Z,1027.5
2019-02-12T00:13:03.142Z,1027.6
2019-02-12T00:14:03.697Z,1027.7
2019-02-12T00:15:03.347Z,1027.6
2019-02-12T00:16:03.328Z,1027.6
2019-02-12T00:17:03.985Z,1027.7
2019-02-12T00:18:03.190Z,1027.8
2019-02-12T00:19:03.917Z,1027.8
2019-02-12T00:20:03.505Z,1027.8
2019-02-12T00:21:09.819Z,1027.9
2019-02-12T00:22:03.134Z,1027.9
2019-02-12T00:23:03.332Z,1028
2019-02-12T00:24:03.801Z,1027.9
2019-02-12T00:25:03.398Z,1028
2019-02-12T00:26:03.705Z,1027.9
2019-02-12T00:27:03.358Z,1028
2019-02-12T00:28:03.975Z,1028
2019-02-12T00:29:03.334Z,1027.9
2019-02-12T00:30:03.865Z,1027.9
2019-02-12T00:31:03.160Z,1027.9
2019-02-12T00:32:03.136Z,1028
2019-02-12T00:33:03.397Z,1028
2019-02-12T00:34:03.892Z,1028
2019-02-12T00:35:03.489Z,1028
2019-02-12T00:36:03.629Z,1028
2019-02-12T00:37:03.080Z,1028
2019-02-12T00:38:03.460Z,1028.2
2019-02-12T00:39:03.805Z,1027.9
2019-02-12T00:40:03.944Z,1028.2
2019-02-12T00:41:02.748Z,1028.2
2019-02-12T00:42:03.489Z,1028.2
2019-02-12T00:43:03.891Z,1028.2
2019-02-12T00:44:03.316Z,1028.2
2019-02-12T00:45:04.110Z,1028.2
2019-02-12T00:46:03.262Z,1028.2
2019-02-12T00:47:03.059Z,1028.3
2019-02-12T00:48:03.584Z,1028.2
2019-02-12T00:49:03.045Z,1028.3
2019-02-12T00:50:03.183Z,1028.3
2019-02-12T00:51:04.093Z,1028.3
2019-02-12T00:52:03.479Z,1028.3
2019-02-12T00:53:03.026Z,1028.3
2019-02-12T00:54:03.368Z,1028.4
2019-02-12T00:55:03.145Z,1028.3
2019-02-12T00:56:03.239Z,1028.3
2019-02-12T00:57:03.131Z,1028.3
2019-02-12T00:58:03.363Z,1028.3
2019-02-12T00:59:03.794Z,1028.3
2019-02-12T01:00:05.112Z,1028.2
2019-02-12T01:01:03.612Z,1028.3
2019-02-12T01:02:03.024Z,1028.4
2019-02-12T01:03:03.463Z,1028.4
2019-02-12T01:04:03.053Z,1028.4
2019-02-12T01:05:04.774Z,1028.5
2019-02-12T01:06:03.849Z,1028.4
2019-02-12T01:07:03.375Z,1028.5
2019-02-12T01:08:03.776Z,1028.5
2019-02-12T01:09:03.204Z,1028.5
2019-02-12T01:10:03.695Z,1028.5
2019-02-12T01:11:03.218Z,1028.5
2019-02-12T01:12:04.273Z,1028.5
2019-02-12T01:13:03.136Z,1028.6
2019-02-12T01:14:03.482Z,1028.6
2019-02-12T01:15:03.166Z,1028.6
2019-02-12T01:16:03.875Z,1028.5
2019-02-12T01:17:03.035Z,1028.5
2019-02-12T01:18:03.800Z,1028.6
2019-02-12T01:19:02.985Z,1028.6
2019-02-12T01:20:03.642Z,1028.6
2019-02-12T01:21:03.970Z,1028.6
2019-02-12T01:22:03.790Z,1028.6
2019-02-12T01:23:03.335Z,1028.5
2019-02-12T01:24:03.847Z,1028.6
2019-02-12T01:25:03.392Z,1028.7
2019-02-12T01:26:03.605Z,1028.6
2019-02-12T01:27:02.966Z,1028.6
2019-02-12T01:28:03.909Z,1028.6
2019-02-12T01:29:03.054Z,1028.7
2019-02-12T01:30:03.632Z,1028.7
2019-02-12T01:31:03.517Z,1028.7
2019-02-12T01:32:03.856Z,1028.7
2019-02-12T01:33:03.216Z,1028.8
2019-02-12T01:34:03.800Z,1028.8
2019-02-12T01:35:03.334Z,1028.9
2019-02-12T01:36:03.873Z,1028.8
2019-02-12T01:37:03.307Z,1028.7
2019-02-12T01:38:03.803Z,1028.8
2019-02-12T01:39:03.173Z,1028.9
2019-02-12T01:40:03.271Z,1029
2019-02-12T01:41:03.704Z,1029
2019-02-12T01:42:03.456Z,1029
2019-02-12T01:43:03.030Z,1028.9
2019-02-12T01:44:03.817Z,1029
2019-02-12T01:45:03.305Z,1029
2019-02-12T01:46:03.216Z,1029
2019-02-12T01:47:03.642Z,1029
2019-02-12T01:48:03.450Z,1029
2019-02-12T01:49:03.415Z,1029
2019-02-12T01:50:03.422Z,1029.2
2019-02-12T01:51:03.037Z,1029.1
2019-02-12T01:52:03.743Z,1029.2
2019-02-12T01:53:03.121Z,1029.2
2019-02-12T01:54:03.484Z,1029.2
2019-02-12T01:55:03.908Z,1029.2
2019-02-12T01:56:03.335Z,1029.4
2019-02-12T01:57:04.196Z,1029.3
2019-02-12T01:58:03.288Z,1029.2
2019-02-12T01:59:03.660Z,1029.3
2019-02-12T02:00:03.547Z,1029.3
2019-02-12T02:01:03.610Z,1029.4
2019-02-12T02:02:03.465Z,1029.3
2019-02-12T02:03:03.555Z,1029.3
2019-02-12T02:04:03.879Z,1029.3
2019-02-12T02:05:03.456Z,1029.3
2019-02-12T02:06:03.042Z,1029.2
2019-02-12T02:07:03.378Z,1029.3
2019-02-12T02:08:03.127Z,1029.1
2019-02-12T02:09:03.431Z,1029.2
2019-02-12T02:10:04.035Z,1029.2
2019-02-12T02:11:03.555Z,1029.2
2019-02-12T02:12:02.966Z,1029.2
2019-02-12T02:13:03.479Z,1029.1
2019-02-12T02:14:03.688Z,1029.1
2019-02-12T02:15:03.431Z,1029.2
2019-02-12T02:16:03.885Z,1029.2
2019-02-12T02:17:03.156Z,1029.2
2019-02-12T02:18:03.925Z,1029.1
2019-02-12T02:19:03.245Z,1029.1
2019-02-12T02:20:03.769Z,1029.3
2019-02-12T02:21:03.222Z,1029.3
2019-02-12T02:22:04.103Z,1029.3
2019-02-12T02:23:03.749Z,1029.3
2019-02-12T02:24:03.344Z,1029.1
2019-02-12T02:25:04.021Z,1029.3
2019-02-12T02:26:03.337Z,1029.4
2019-02-12T02:27:02.903Z,1029.3
2019-02-12T02:28:03.218Z,1029.3
2019-02-12T02:29:03.604Z,1029.3
2019-02-12T02:30:03.126Z,1029.4
2019-02-12T02:31:03.854Z,1029.3
2019-02-12T02:32:03.365Z,1029.3
2019-02-12T02:33:03.911Z,1029.3
2019-02-12T02:34:03.378Z,1029.3
2019-02-12T02:35:03.638Z,1029.3
2019-02-12T02:36:02.993Z,1029.3
2019-02-12T02:37:03.644Z,1029.4
2019-02-12T02:38:03.198Z,1029.3
2019-02-12T02:39:03.682Z,1029.3
2019-02-12T02:40:03.323Z,1029.3
2019-02-12T02:41:03.740Z,1029.3
2019-02-12T02:42:03.090Z,1029.4
2019-02-12T02:43:03.561Z,1029.4
2019-02-12T02:44:03.043Z,1029.4
2019-02-12T02:45:03.946Z,1029.4
2019-02-12T02:46:03.106Z,1029.4
2019-02-12T02:47:03.699Z,1029.4
2019-02-12T02:48:03.276Z,1029.3
2019-02-12T02:49:03.672Z,1029.4
2019-02-12T02:50:03.994Z,1029.3
2019-02-12T02:51:03.988Z,1029.3
2019-02-12T02:52:03.100Z,1029.4
2019-02-12T02:53:03.603Z,1029.4
2019-02-12T02:54:02.947Z,1029.3
2019-02-12T02:55:03.752Z,1029.3
2019-02-12T02:56:04.032Z,1029.2
2019-02-12T02:57:03.633Z,1029.2
2019-02-12T02:58:03.274Z,1029.3
2019-02-12T02:59:03.843Z,1029.2
2019-02-12T03:00:03.094Z,1029.2
2019-02-12T03:01:03.515Z,1029.2
2019-02-12T03:02:03.144Z,1029.3
2019-02-12T03:03:03.527Z,1029.3
2019-02-12T03:04:03.139Z,1029.2
2019-02-12T03:05:03.827Z,1029.3
2019-02-12T03:06:03.646Z,1029.3
2019-02-12T03:07:03.682Z,1029.3
2019-02-12T03:08:03.540Z,1029.4
2019-02-12T03:09:03.125Z,1029.4
2019-02-12T03:10:03.752Z,1029.4
2019-02-12T03:11:03.362Z,1029.5
2019-02-12T03:12:03.656Z,1029.5
2019-02-12T03:13:03.884Z,1029.5
2019-02-12T03:14:03.362Z,1029.6
2019-02-12T03:15:03.120Z,1029.6
2019-02-12T03:16:03.361Z,1029.5
2019-02-12T03:17:03.022Z,1029.6
2019-02-12T03:18:03.186Z,1029.5
2019-02-12T03:19:02.860Z,1029.5
2019-02-12T03:20:03.383Z,1029.6
2019-02-12T03:21:04.004Z,1029.5
2019-02-12T03:22:04.450Z,1029.6
2019-02-12T03:23:03.975Z,1029.5
2019-02-12T03:24:03.240Z,1029.6
2019-02-12T03:25:03.847Z,1029.5
2019-02-12T03:26:03.312Z,1029.5
2019-02-12T03:27:03.597Z,1029.6
2019-02-12T03:28:03.201Z,1029.6
2019-02-12T03:29:03.798Z,1029.7
2019-02-12T03:30:03.361Z,1029.6
2019-02-12T03:31:03.662Z,1029.6
2019-02-12T03:32:02.950Z,1029.6
2019-02-12T03:33:03.693Z,1029.5
2019-02-12T03:34:03.062Z,1029.6
2019-02-12T03:35:04.002Z,1029.7
2019-02-12T03:36:03.241Z,1029.7
2019-02-12T03:37:03.574Z,1029.7
2019-02-12T03:38:03.098Z,1029.8
2019-02-12T03:39:03.563Z,1029.8
2019-02-12T03:40:03.310Z,1029.8
2019-02-12T03:41:03.765Z,1029.8
2019-02-12T03:42:03.194Z,1029.9
2019-02-12T03:43:03.289Z,1029.8
2019-02-12T03:44:02.958Z,1029.9
2019-02-12T03:45:03.391Z,1030
2019-02-12T03:46:03.060Z,1030
2019-02-12T03:47:03.423Z,1029.9
2019-02-12T03:48:03.793Z,1029.9
2019-02-12T03:49:03.314Z,1029.9
2019-02-12T03:50:03.802Z,1029.9
2019-02-12T03:51:03.186Z,1030
2019-02-12T03:52:13.510Z,1030
2019-02-12T03:53:02.959Z,1029.9
2019-02-12T03:54:03.450Z,1030
2019-02-12T03:55:03.242Z,1030
2019-02-12T03:56:03.540Z,1029.9
2019-02-12T03:57:04.054Z,1029.9
2019-02-12T03:58:03.287Z,1030
2019-02-12T03:59:04.033Z,1030
2019-02-12T04:00:03.193Z,1030
2019-02-12T04:01:03.909Z,1029.9
2019-02-12T04:02:03.375Z,1030
2019-02-12T04:03:03.801Z,1030
2019-02-12T04:04:02.968Z,1030
2019-02-12T04:05:03.830Z,1030
2019-02-12T04:06:03.247Z,1029.9
2019-02-12T04:07:03.805Z,1030
2019-02-12T04:08:03.843Z,1029.9
2019-02-12T04:09:03.444Z,1029.9
2019-02-12T04:10:03.107Z,1029.9
2019-02-12T04:11:03.490Z,1030
2019-02-12T04:12:03.029Z,1030
2019-02-12T04:13:03.768Z,1030
2019-02-12T04:14:03.045Z,1029.9
2019-02-12T04:15:03.802Z,1030
2019-02-12T04:16:03.130Z,1030
2019-02-12T04:17:03.444Z,1030
2019-02-12T04:18:03.097Z,1030
2019-02-12T04:19:03.596Z,1030
2019-02-12T04:20:03.375Z,1030
2019-02-12T04:21:03.560Z,1030
2019-02-12T04:22:02.976Z,1030
2019-02-12T04:23:03.353Z,1030
2019-02-12T04:24:03.003Z,1030
2019-02-12T04:25:03.730Z,1030
2019-02-12T04:26:03.983Z,1030
2019-02-12T04:27:03.523Z,1030
2019-02-12T04:28:03.829Z,1030
2019-02-12T04:29:03.465Z,1030
2019-02-12T04:30:03.950Z,1029.9
2019-02-12T04:31:03.626Z,1030
2019-02-12T04:32:03.008Z,1030.1
2019-02-12T04:33:03.583Z,1030
2019-02-12T04:34:03.817Z,1030.1
2019-02-12T04:35:03.612Z,1030.1
2019-02-12T04:36:03.105Z,1030.2
2019-02-12T04:37:03.575Z,1030
2019-02-12T04:38:03.240Z,1030
2019-02-12T04:39:03.682Z,1030
2019-02-12T04:40:02.792Z,1030.1
2019-02-12T04:41:03.438Z,1029.9
2019-02-12T04:42:03.920Z,1030
2019-02-12T04:43:03.403Z,1030
2019-02-12T04:44:03.585Z,1029.9
2019-02-12T04:45:03.379Z,1030
2019-02-12T04:46:03.951Z,1030
2019-02-12T04:47:03.207Z,1030
2019-02-12T04:48:03.592Z,1030
2019-02-12T04:49:03.246Z,1030.1
2019-02-12T04:50:03.045Z,1030.1
2019-02-12T04:51:03.364Z,1030
2019-02-12T04:52:03.979Z,1030
2019-02-12T04:53:03.122Z,1030
2019-02-12T04:54:03.886Z,1030.1
2019-02-12T04:55:03.411Z,1030.2
2019-02-12T04:56:04.098Z,1030.2
2019-02-12T04:57:03.394Z,1030.3
2019-02-12T04:58:02.879Z,1030.2
2019-02-12T04:59:03.429Z,1030.2
2019-02-12T05:00:03.930Z,1030.1
2019-02-12T05:01:03.214Z,1030.2
2019-02-12T05:02:04.277Z,1030.2
2019-02-12T05:03:03.290Z,1030.1
2019-02-12T05:04:02.953Z,1030.1
2019-02-12T05:05:03.295Z,1030.2
2019-02-12T05:06:03.843Z,1030.2
2019-02-12T05:07:03.383Z,1030.2
2019-02-12T05:08:04.002Z,1030.1
2019-02-12T05:09:03.542Z,1030.2
2019-02-12T05:10:04.101Z,1030.2
2019-02-12T05:11:03.614Z,1030.1
2019-02-12T05:12:03.883Z,1030.2
2019-02-12T05:13:03.273Z,1030.1
2019-02-12T05:14:03.813Z,1030.1
2019-02-12T05:15:03.269Z,1030.2
2019-02-12T05:16:03.019Z,1030.1
2019-02-12T05:17:03.074Z,1030.2
2019-02-12T05:18:03.462Z,1030.2
2019-02-12T05:19:02.781Z,1030.3
2019-02-12T05:20:03.490Z,1030.3
2019-02-12T05:21:02.993Z,1030.3
2019-02-12T05:22:03.674Z,1030.3
2019-02-12T05:23:03.064Z,1030.2
2019-02-12T05:24:03.522Z,1030.2
2019-02-12T05:25:03.114Z,1030.3
2019-02-12T05:26:03.859Z,1030.3
2019-02-12T05:27:02.864Z,1030.2
2019-02-12T05:28:03.422Z,1030.3
2019-02-12T05:29:02.921Z,1030.4
2019-02-12T05:30:03.153Z,1030.3
2019-02-12T05:31:03.659Z,1030.3
2019-02-12T05:32:03.126Z,1030.3
2019-02-12T05:33:03.721Z,1030.3
2019-02-12T05:34:03.191Z,1030.2
2019-02-12T05:35:03.824Z,1030.3
2019-02-12T05:36:03.188Z,1030.3
2019-02-12T05:37:03.613Z,1030.2
2019-02-12T05:38:02.946Z,1030.3
2019-02-12T05:39:03.335Z,1030.3
2019-02-12T05:40:03.211Z,1030.3
2019-02-12T05:41:03.983Z,1030.3
2019-02-12T05:42:03.414Z,1030.2
2019-02-12T05:43:03.575Z,1030.2
2019-02-12T05:44:03.252Z,1030.2
2019-02-12T05:45:03.536Z,1030.3
2019-02-12T05:46:03.699Z,1030.3
2019-02-12T05:47:03.484Z,1030.4
2019-02-12T05:48:03.123Z,1030.5
2019-02-12T05:49:03.302Z,1030.4
2019-02-12T05:50:03.946Z,1030.3
2019-02-12T05:51:03.245Z,1030.4
2019-02-12T05:52:03.795Z,1030.4
2019-02-12T05:53:03.444Z,1030.4
2019-02-12T05:54:03.123Z,1030.5
2019-02-12T05:55:03.212Z,1030.4
2019-02-12T05:56:03.706Z,1030.5
2019-02-12T05:57:03.859Z,1030.4
2019-02-12T05:58:03.474Z,1030.5
2019-02-12T05:59:04.075Z,1030.5
2019-02-12T06:00:03.620Z,1030.5
2019-02-12T06:01:03.933Z,1030.5
2019-02-12T06:02:03.422Z,1030.5
2019-02-12T06:03:03.888Z,1030.5
2019-02-12T06:04:03.464Z,1030.5
2019-02-12T06:05:03.939Z,1030.5
2019-02-12T06:06:03.066Z,1030.5
2019-02-12T06:07:03.894Z,1030.5
2019-02-12T06:08:03.530Z,1030.5
2019-02-12T06:09:03.628Z,1030.5
2019-02-12T06:10:03.246Z,1030.6
2019-02-12T06:11:03.576Z,1030.5
2019-02-12T06:12:03.389Z,1030.6
2019-02-12T06:13:03.671Z,1030.6
2019-02-12T06:14:03.089Z,1030.7
2019-02-12T06:15:03.745Z,1030.6
2019-02-12T06:16:03.309Z,1030.8
2019-02-12T06:17:03.577Z,1030.7
2019-02-12T06:18:04.110Z,1030.8
2019-02-12T06:19:03.646Z,1030.7
2019-02-12T06:20:03.165Z,1030.8
2019-02-12T06:21:03.364Z,1030.8
2019-02-12T06:22:03.552Z,1030.7
2019-02-12T06:23:04.675Z,1030.8
2019-02-12T06:24:03.613Z,1030.8
2019-02-12T06:25:03.573Z,1030.8
2019-02-12T06:26:04.017Z,1031
2019-02-12T06:27:03.217Z,1030.9
2019-02-12T06:28:03.975Z,1030.9
2019-02-12T06:29:03.753Z,1030.9
2019-02-12T06:30:03.328Z,1031.1
2019-02-12T06:31:03.218Z,1030.9
2019-02-12T06:32:03.794Z,1030.8
2019-02-12T06:33:08.254Z,1031.1
2019-02-12T06:34:03.763Z,1031.1
2019-02-12T06:35:03.205Z,1031.1
2019-02-12T06:36:03.858Z,1030.9
2019-02-12T06:37:03.209Z,1030.9
2019-02-12T06:38:03.979Z,1030.9
2019-02-12T06:39:03.262Z,1030.9
2019-02-12T06:40:03.831Z,1031.1
2019-02-12T06:41:03.050Z,1030.9
2019-02-12T06:42:03.721Z,1031.1
2019-02-12T06:43:03.349Z,1031.1
2019-02-12T06:44:03.872Z,1031.1
2019-02-12T06:45:03.894Z,1031.1
2019-02-12T06:46:03.267Z,1031.1
2019-02-12T06:47:03.870Z,1031.2
2019-02-12T06:48:03.358Z,1031.2
2019-02-12T06:49:03.696Z,1031.2
2019-02-12T06:50:03.016Z,1031.2
2019-02-12T06:51:03.608Z,1031.2
2019-02-12T06:52:02.866Z,1031.2
2019-02-12T06:53:13.209Z,1031.2
2019-02-12T06:54:02.905Z,1031.3
2019-02-12T06:55:03.401Z,1031.3
2019-02-12T06:56:02.752Z,1031.3
2019-02-12T06:57:03.342Z,1031.3
2019-02-12T06:58:03.816Z,1031.3
2019-02-12T06:59:03.904Z,1031.4
2019-02-12T07:00:03.228Z,1031.4
2019-02-12T07:01:03.214Z,1031.4
2019-02-12T07:02:03.719Z,1031.4
2019-02-12T07:03:03.339Z,1031.5
2019-02-12T07:04:03.600Z,1031.4
2019-02-12T07:05:03.906Z,1031.4
2019-02-12T07:06:03.383Z,1031.5
2019-02-12T07:07:02.977Z,1031.5
2019-02-12T07:08:03.456Z,1031.5
2019-02-12T07:09:03.125Z,1031.5
2019-02-12T07:10:03.353Z,1031.6
2019-02-12T07:11:02.969Z,1031.4
2019-02-12T07:12:03.166Z,1031.5
2019-02-12T07:13:03.951Z,1031.5
2019-02-12T07:14:03.362Z,1031.5
2019-02-12T07:15:03.960Z,1031.6
2019-02-12T07:16:03.435Z,1031.5
2019-02-12T07:17:03.587Z,1031.6
2019-02-12T07:18:03.124Z,1031.6
2019-02-12T07:19:03.741Z,1031.6
2019-02-12T07:20:03.342Z,1031.6
2019-02-12T07:21:04.028Z,1031.6
2019-02-12T07:22:03.421Z,1031.6
2019-02-12T07:23:03.813Z,1031.6
2019-02-12T07:24:03.046Z,1031.6
2019-02-12T07:25:03.540Z,1031.6
2019-02-12T07:26:03.003Z,1031.6
2019-02-12T07:27:03.649Z,1031.4
2019-02-12T07:28:03.217Z,1031.6
2019-02-12T07:29:03.863Z,1031.7
2019-02-12T07:30:03.992Z,1031.7
2019-02-12T07:31:03.346Z,1031.6
2019-02-12T07:32:03.277Z,1031.6
2019-02-12T07:33:03.529Z,1031.7
2019-02-12T07:34:03.112Z,1031.7
2019-02-12T07:35:03.899Z,1031.7
2019-02-12T07:36:04.113Z,1031.8
2019-02-12T07:37:03.401Z,1031.7
2019-02-12T07:38:03.963Z,1031.7
2019-02-12T07:39:03.475Z,1031.7
2019-02-12T07:40:03.925Z,1031.7
2019-02-12T07:41:03.590Z,1031.7
2019-02-12T07:42:03.769Z,1031.8
2019-02-12T07:43:03.175Z,1031.7
2019-02-12T07:44:03.611Z,1031.8
2019-02-12T07:45:03.439Z,1031.7
2019-02-12T07:46:03.498Z,1031.7
2019-02-12T07:47:03.405Z,1031.8
2019-02-12T07:48:03.736Z,1031.8
2019-02-12T07:49:03.067Z,1031.6
2019-02-12T07:50:03.908Z,1031.8
2019-02-12T07:51:03.263Z,1031.8
2019-02-12T07:52:03.728Z,1031.9
2019-02-12T07:53:03.583Z,1031.9
2019-02-12T07:54:03.879Z,1031.8
2019-02-12T07:55:03.402Z,1031.9
2019-02-12T07:56:03.714Z,1032
2019-02-12T07:57:03.286Z,1031.9
2019-02-12T07:58:03.804Z,1031.9
2019-02-12T07:59:03.565Z,1032
2019-02-12T08:00:03.181Z,1031.9
2019-02-12T08:01:03.428Z,1031.9
2019-02-12T08:02:03.798Z,1032
2019-02-12T08:03:03.374Z,1032
2019-02-12T08:04:03.874Z,1032
2019-02-12T08:05:03.724Z,1032.1
2019-02-12T08:06:03.776Z,1032.1
2019-02-12T08:07:02.982Z,1032
2019-02-12T08:08:03.504Z,1032.1
2019-02-12T08:09:04.033Z,1032.2
2019-02-12T08:10:03.426Z,1032.2
2019-02-12T08:11:03.122Z,1032.2
2019-02-12T08:12:03.337Z,1032.2
2019-02-12T08:13:04.032Z,1032.3
2019-02-12T08:14:03.309Z,1032.3
2019-02-12T08:15:03.845Z,1032.2
2019-02-12T08:16:03.229Z,1032.3
2019-02-12T08:17:03.752Z,1032.3
2019-02-12T08:18:03.026Z,1032.4
2019-02-12T08:19:03.801Z,1032.3
2019-02-12T08:20:03.068Z,1032.3
2019-02-12T08:21:03.669Z,1032.3
2019-02-12T08:22:02.952Z,1032.3
2019-02-12T08:23:03.899Z,1032.3
2019-02-12T08:24:03.247Z,1032.3
2019-02-12T08:25:03.829Z,1032.3
2019-02-12T08:26:03.235Z,1032.3
2019-02-12T08:27:03.536Z,1032.3
2019-02-12T08:28:03.861Z,1032.4
2019-02-12T08:29:03.522Z,1032.4
2019-02-12T08:30:02.782Z,1032.3
2019-02-12T08:31:03.490Z,1032.3
2019-02-12T08:32:03.210Z,1032.3
2019-02-12T08:33:03.500Z,1032.4
2019-02-12T08:34:03.937Z,1032.4
2019-02-12T08:35:03.792Z,1032.4
2019-02-12T08:36:03.851Z,1032.5
2019-02-12T08:37:03.865Z,1032.5
2019-02-12T08:38:03.684Z,1032.3
2019-02-12T08:39:03.426Z,1032.2
2019-02-12T08:40:03.232Z,1032.3
2019-02-12T08:41:03.994Z,1032.2
2019-02-12T08:42:03.890Z,1032.2
2019-02-12T08:43:03.580Z,1032.3
2019-02-12T08:44:03.832Z,1032.3
2019-02-12T08:45:03.489Z,1032.3
2019-02-12T08:46:04.030Z,1032.3
2019-02-12T08:47:03.558Z,1032.3
2019-02-12T08:48:02.995Z,1032.4
2019-02-12T08:49:03.651Z,1032.4
2019-02-12T08:50:03.673Z,1032.3
2019-02-12T08:51:03.560Z,1032.2
2019-02-12T08:52:03.758Z,1032.4
2019-02-12T08:53:03.480Z,1032.3
2019-02-12T08:54:03.899Z,1032.5
2019-02-12T08:55:03.683Z,1032.4
2019-02-12T08:56:03.728Z,1032.4
2019-02-12T08:57:03.166Z,1032.4
2019-02-12T08:58:03.804Z,1032.5
2019-02-12T08:59:02.943Z,1032.5
2019-02-12T09:00:04.006Z,1032.4
2019-02-12T09:01:03.167Z,1032.4
2019-02-12T09:02:03.801Z,1032.4
2019-02-12T09:03:03.095Z,1032.4
2019-02-12T09:04:03.458Z,1032.5
2019-02-12T09:05:03.786Z,1032.6
2019-02-12T09:06:04.496Z,1032.6
2019-02-12T09:07:03.952Z,1032.6
2019-02-12T09:08:03.649Z,1032.5
2019-02-12T09:09:03.857Z,1032.6
2019-02-12T09:10:04.129Z,1032.6
2019-02-12T09:11:03.894Z,1032.5
2019-02-12T09:12:03.795Z,1032.5
2019-02-12T09:13:03.605Z,1032.5
2019-02-12T09:14:03.214Z,1032.6
2019-02-12T09:15:03.558Z,1032.4
2019-02-12T09:16:03.409Z,1032.5
2019-02-12T09:17:03.197Z,1032.5
2019-02-12T09:18:03.709Z,1032.6
2019-02-12T09:19:03.398Z,1032.6
2019-02-12T09:20:03.728Z,1032.6
2019-02-12T09:21:03.701Z,1032.6
2019-02-12T09:22:03.561Z,1032.6
2019-02-12T09:23:03.999Z,1032.4
2019-02-12T09:24:04.066Z,1032.6
2019-02-12T09:25:04.005Z,1032.6
2019-02-12T09:26:03.592Z,1032.7
2019-02-12T09:27:03.540Z,1032.7
2019-02-12T09:28:03.722Z,1032.7
2019-02-12T09:29:03.373Z,1032.7
2019-02-12T09:30:06.779Z,1032.6
2019-02-12T09:31:03.859Z,1032.6
2019-02-12T09:32:03.568Z,1032.6
2019-02-12T09:33:03.842Z,1032.7
2019-02-12T09:34:03.306Z,1032.7
2019-02-12T09:35:03.729Z,1032.7
2019-02-12T09:36:04.102Z,1032.7
2019-02-12T09:37:03.694Z,1032.8
2019-02-12T09:38:03.587Z,1032.9
2019-02-12T09:39:02.928Z,1032.7
2019-02-12T09:40:03.950Z,1032.8
2019-02-12T09:41:03.200Z,1032.9
2019-02-12T09:42:03.903Z,1032.7
2019-02-12T09:43:03.537Z,1032.7
2019-02-12T09:44:03.024Z,1032.8
2019-02-12T09:45:03.598Z,1032.9
2019-02-12T09:46:02.790Z,1032.7
2019-02-12T09:47:03.622Z,1032.8
2019-02-12T09:48:04.002Z,1032.8
2019-02-12T09:49:03.038Z,1032.9
2019-02-12T09:50:03.622Z,1032.7
2019-02-12T09:51:02.863Z,1032.7
2019-02-12T09:52:03.703Z,1032.7
2019-02-12T09:53:02.987Z,1032.7
2019-02-12T09:54:09.365Z,1032.6
2019-02-12T09:55:03.162Z,1032.6
2019-02-12T09:56:03.595Z,1032.7
2019-02-12T09:57:03.118Z,1032.7
2019-02-12T09:58:03.443Z,1032.7
2019-02-12T09:59:03.559Z,1032.7
2019-02-12T10:00:03.844Z,1032.8
2019-02-12T10:01:03.061Z,1032.7
2019-02-12T10:02:03.541Z,1032.7
2019-02-12T10:03:02.956Z,1032.7
2019-02-12T10:04:03.632Z,1032.6
2019-02-12T10:05:03.485Z,1032.7
2019-02-12T10:06:03.832Z,1032.7
2019-02-12T10:07:03.378Z,1032.7
2019-02-12T10:08:03.740Z,1032.7
2019-02-12T10:09:03.546Z,1032.8
2019-02-12T10:10:03.792Z,1032.7
2019-02-12T10:11:03.492Z,1032.8
2019-02-12T10:12:03.593Z,1032.8
2019-02-12T10:13:03.266Z,1032.7
2019-02-12T10:14:03.760Z,1032.7
2019-02-12T10:15:03.170Z,1032.8
2019-02-12T10:16:03.445Z,1032.8
2019-02-12T10:17:03.053Z,1032.8
2019-02-12T10:18:03.728Z,1032.7
2019-02-12T10:19:03.253Z,1032.7
2019-02-12T10:20:03.571Z,1032.8
2019-02-12T10:21:03.874Z,1032.8
2019-02-12T10:22:02.946Z,1032.7
2019-02-12T10:23:03.706Z,1032.7
2019-02-12T10:24:02.978Z,1032.8
2019-02-12T10:25:03.651Z,1032.8
2019-02-12T10:26:03.275Z,1032.8
2019-02-12T10:27:03.666Z,1032.8
2019-02-12T10:28:02.941Z,1032.8
2019-02-12T10:29:03.397Z,1032.7
2019-02-12T10:30:03.167Z,1032.8
2019-02-12T10:31:03.726Z,1032.8
2019-02-12T10:32:09.381Z,1032.8
2019-02-12T10:33:03.189Z,1032.8
2019-02-12T10:34:03.008Z,1032.8
2019-02-12T10:35:03.422Z,1032.8
2019-02-12T10:36:04.481Z,1032.8
2019-02-12T10:37:03.432Z,1032.8
2019-02-12T10:38:03.008Z,1032.7
2019-02-12T10:39:03.058Z,1032.8
2019-02-12T10:40:03.750Z,1032.8
2019-02-12T10:41:03.093Z,1032.7
2019-02-12T10:42:03.561Z,1032.7
2019-02-12T10:43:02.887Z,1032.7
2019-02-12T10:44:03.582Z,1032.6
2019-02-12T10:45:03.123Z,1032.7
2019-02-12T10:46:03.709Z,1032.7
2019-02-12T10:47:03.195Z,1032.6
2019-02-12T10:48:03.369Z,1032.7
2019-02-12T10:49:03.049Z,1032.7
2019-02-12T10:50:03.632Z,1032.8
2019-02-12T10:51:02.913Z,1032.7
2019-02-12T10:52:03.173Z,1032.8
2019-02-12T10:53:03.471Z,1032.7
2019-02-12T10:54:03.881Z,1032.8
2019-02-12T10:55:03.579Z,1032.7
2019-02-12T10:56:04.989Z,1032.8
2019-02-12T10:57:03.678Z,1033
2019-02-12T10:58:03.147Z,1032.7
2019-02-12T10:59:03.526Z,1033
2019-02-12T11:00:03.009Z,1033
2019-02-12T11:01:03.249Z,1033.1
2019-02-12T11:02:03.926Z,1033.1
2019-02-12T11:03:03.255Z,1033
2019-02-12T11:04:03.026Z,1033
2019-02-12T11:05:03.333Z,1033
2019-02-12T11:06:03.614Z,1033.1
2019-02-12T11:07:03.292Z,1033.1
2019-02-12T11:08:03.658Z,1033
2019-02-12T11:09:03.129Z,1033.1
2019-02-12T11:10:03.721Z,1032.9
2019-02-12T11:11:03.170Z,1033
2019-02-12T11:12:03.633Z,1033
2019-02-12T11:13:03.376Z,1033
2019-02-12T11:14:03.702Z,1032.9
2019-02-12T11:15:03.903Z,1033
2019-02-12T11:16:03.597Z,1033
2019-02-12T11:17:03.140Z,1033
2019-02-12T11:18:03.190Z,1033
2019-02-12T11:19:03.089Z,1032.9
2019-02-12T11:20:03.714Z,1032.9
2019-02-12T11:21:12.769Z,1033
2019-02-12T11:22:03.105Z,1032.9
2019-02-12T11:23:03.860Z,1033
2019-02-12T11:24:03.360Z,1033
2019-02-12T11:25:03.990Z,1032.9
2019-02-12T11:26:03.814Z,1032.9
2019-02-12T11:27:02.833Z,1032.9
2019-02-12T11:28:02.736Z,1032.8
2019-02-12T11:29:03.108Z,1032.7
2019-02-12T11:30:03.472Z,1032.8
2019-02-12T11:31:03.785Z,1032.7
2019-02-12T11:32:03.043Z,1032.7
2019-02-12T11:33:03.737Z,1032.8
2019-02-12T11:34:03.905Z,1032.8
2019-02-12T11:35:03.296Z,1032.8
2019-02-12T11:36:03.606Z,1032.9
2019-02-12T11:37:03.117Z,1032.9
2019-02-12T11:38:04.065Z,1032.8
2019-02-12T11:39:03.227Z,1032.8
2019-02-12T11:40:02.943Z,1033
2019-02-12T11:41:03.364Z,1032.8
2019-02-12T11:42:03.882Z,1033
2019-02-12T11:43:03.186Z,1033
2019-02-12T11:44:03.726Z,1032.8
2019-02-12T11:45:03.473Z,1032.8
2019-02-12T11:46:04.262Z,1032.9
2019-02-12T11:47:02.986Z,1032.8
2019-02-12T11:48:03.280Z,1032.9
2019-02-12T11:49:03.670Z,1032.8
2019-02-12T11:50:03.351Z,1032.8
2019-02-12T11:51:03.039Z,1032.8
2019-02-12T11:52:03.266Z,1032.7
2019-02-12T11:53:02.997Z,1032.8
2019-02-12T11:54:03.065Z,1032.7
2019-02-12T11:55:03.820Z,1033
2019-02-12T11:56:03.214Z,1032.9
2019-02-12T11:57:03.012Z,1033
2019-02-12T11:58:03.100Z,1033.1
2019-02-12T11:59:03.688Z,1033
2019-02-12T12:00:03.443Z,1033.1
2019-02-12T12:01:03.651Z,1033.1
2019-02-12T12:02:02.960Z,1033.1
2019-02-12T12:03:03.407Z,1033.1
2019-02-12T12:04:03.265Z,1033.1
2019-02-12T12:05:03.676Z,1033.1
2019-02-12T12:06:02.090Z,1033.1
2019-02-12T12:07:03.704Z,1033
2019-02-12T12:08:02.954Z,1033.2
2019-02-12T12:09:03.596Z,1033
2019-02-12T12:10:04.066Z,1033.2
2019-02-12T12:11:03.539Z,1033.1
2019-02-12T12:12:03.096Z,1033
2019-02-12T12:13:03.490Z,1033.1
2019-02-12T12:14:02.782Z,1033.2
2019-02-12T12:15:03.392Z,1033.2
2019-02-12T12:16:03.823Z,1033.2
2019-02-12T12:17:03.482Z,1033.2
2019-02-12T12:18:03.461Z,1033.2
2019-02-12T12:19:03.241Z,1033.2
2019-02-12T12:20:03.733Z,1033.3
2019-02-12T12:21:03.105Z,1033.3
2019-02-12T12:22:03.792Z,1033.3
2019-02-12T12:23:03.017Z,1033.4
2019-02-12T12:24:03.643Z,1033.4
2019-02-12T12:25:03.011Z,1033.4
2019-02-12T12:26:03.522Z,1033.3
2019-02-12T12:27:02.890Z,1033.5
2019-02-12T12:28:03.338Z,1033.4
2019-02-12T12:29:03.025Z,1033.4
2019-02-12T12:30:03.933Z,1033.3
2019-02-12T12:31:03.089Z,1033.4
2019-02-12T12:32:03.431Z,1033.5
2019-02-12T12:33:03.321Z,1033.5
2019-02-12T12:34:03.944Z,1033.4